Hermosa Beach, California
Current Conditions -  °F | °C
As of 12:53 AM on Sunday 21 Dec 2014 (Local Time) from KLAX Reporting Station
Few Clouds Few Clouds  
Wind Chill: 58°   Ceiling: Unl
Heat Index: 58°   Visibility: 9mi
Dew Point: 48°   Wind: 7mph
Humidity: 70%   Direction: NA
Pressure: 30.14"   Gusts: NA
Location:  33.86°N, 118.39°W
Report Text: KLAX 210853Z VRB06KT 9SM FEW016 14/09 A3014 RMK AO2 SLP206 T01440089 58002
Loading
Personal Weather Stations






























Interactive Weather Map New forecast layout! Learn more

10-Day Weather Forecast

Advertisements
Track Severe Weather on mobile